sensor_id;sensor_type;location;lat;lon;timestamp;pressure;altitude;pressure_sealevel;temperature;humidity
23635;BME280;11994;51.038;16.974;2022-10-26T00:00:52;100474.88;;;11.52;84.16
23635;BME280;11994;51.038;16.974;2022-10-26T00:03:18;100483.25;;;11.48;84.00
23635;BME280;11994;51.038;16.974;2022-10-26T00:05:44;100481.27;;;11.41;84.01
23635;BME280;11994;51.038;16.974;2022-10-26T00:08:10;100478.36;;;11.34;84.07
23635;BME280;11994;51.038;16.974;2022-10-26T00:10:38;100483.23;;;11.31;84.21
23635;BME280;11994;51.038;16.974;2022-10-26T00:13:05;100476.69;;;11.30;84.39
23635;BME280;11994;51.038;16.974;2022-10-26T00:15:34;100482.77;;;11.32;84.53
23635;BME280;11994;51.038;16.974;2022-10-26T00:18:06;100486.79;;;11.29;84.55
23635;BME280;11994;51.038;16.974;2022-10-26T00:20:32;100491.14;;;11.30;84.48
23635;BME280;11994;51.038;16.974;2022-10-26T00:22:58;100489.05;;;11.25;84.55
23635;BME280;11994;51.038;16.974;2022-10-26T00:25:24;100496.39;;;11.30;84.74
23635;BME280;11994;51.038;16.974;2022-10-26T00:27:51;100496.75;;;11.34;84.53
23635;BME280;11994;51.038;16.974;2022-10-26T00:30:17;100498.58;;;11.30;84.45
23635;BME280;11994;51.038;16.974;2022-10-26T00:32:43;100495.98;;;11.29;84.40
23635;BME280;11994;51.038;16.974;2022-10-26T00:35:10;100503.84;;;11.30;84.59
23635;BME280;11994;51.038;16.974;2022-10-26T00:37:36;100495.48;;;11.31;84.54
23635;BME280;11994;51.038;16.974;2022-10-26T00:40:02;100501.21;;;11.30;84.62
23635;BME280;11994;51.038;16.974;2022-10-26T00:42:28;100500.36;;;11.28;84.48
23635;BME280;11994;51.038;16.974;2022-10-26T00:45:01;100492.09;;;11.26;84.35
23635;BME280;11994;51.038;16.974;2022-10-26T00:47:46;100499.56;;;11.25;84.46
23635;BME280;11994;51.038;16.974;2022-10-26T00:50:18;100497.43;;;11.23;84.65
23635;BME280;11994;51.038;16.974;2022-10-26T00:52:46;100498.27;;;11.23;84.63
23635;BME280;11994;51.038;16.974;2022-10-26T00:55:12;100496.16;;;11.20;84.44
23635;BME280;11994;51.038;16.974;2022-10-26T00:57:38;100496.09;;;11.04;84.17
23635;BME280;11994;51.038;16.974;2022-10-26T01:00:07;100492.38;;;10.92;84.20
23635;BME280;11994;51.038;16.974;2022-10-26T01:02:33;100496.52;;;10.83;84.35
23635;BME280;11994;51.038;16.974;2022-10-26T01:05:02;100498.73;;;10.82;84.68
23635;BME280;11994;51.038;16.974;2022-10-26T01:07:28;100496.49;;;10.84;84.87
23635;BME280;11994;51.038;16.974;2022-10-26T01:09:54;100495.98;;;10.88;84.88
23635;BME280;11994;51.038;16.974;2022-10-26T01:12:21;100494.71;;;10.85;84.68
23635;BME280;11994;51.038;16.974;2022-10-26T01:14:48;100493.48;;;10.82;84.59
23635;BME280;11994;51.038;16.974;2022-10-26T01:23:44;100501.24;;;10.64;84.24
23635;BME280;11994;51.038;16.974;2022-10-26T01:32:07;100496.88;;;10.65;84.71
23635;BME280;11994;51.038;16.974;2022-10-26T01:35:07;100489.95;;;10.61;84.68
23635;BME280;11994;51.038;16.974;2022-10-26T01:37:23;100484.81;;;10.55;84.64
23635;BME280;11994;51.038;16.974;2022-10-26T01:39:54;100482.68;;;10.53;84.61
23635;BME280;11994;51.038;16.974;2022-10-26T01:42:24;100482.23;;;10.52;84.76
23635;BME280;11994;51.038;16.974;2022-10-26T01:44:55;100483.43;;;10.58;84.95
23635;BME280;11994;51.038;16.974;2022-10-26T01:47:29;100474.19;;;10.62;84.93
23635;BME280;11994;51.038;16.974;2022-10-26T01:49:58;100482.05;;;10.62;84.73
23635;BME280;11994;51.038;16.974;2022-10-26T01:52:26;100479.06;;;10.58;84.38
23635;BME280;11994;51.038;16.974;2022-10-26T01:55:34;100477.10;;;10.46;84.33
23635;BME280;11994;51.038;16.974;2022-10-26T01:57:53;100479.84;;;10.40;84.55
23635;BME280;11994;51.038;16.974;2022-10-26T02:00:22;100475.98;;;10.37;84.60
23635;BME280;11994;51.038;16.974;2022-10-26T02:03:12;100477.63;;;10.41;84.87
23635;BME280;11994;51.038;16.974;2022-10-26T02:05:52;100475.38;;;10.45;84.88
23635;BME280;11994;51.038;16.974;2022-10-26T02:08:31;100471.44;;;10.45;85.02
23635;BME280;11994;51.038;16.974;2022-10-26T02:17:26;100477.96;;;10.48;84.68
23635;BME280;11994;51.038;16.974;2022-10-26T02:19:57;100466.69;;;10.43;84.64
23635;BME280;11994;51.038;16.974;2022-10-26T02:22:37;100464.52;;;10.41;84.71
23635;BME280;11994;51.038;16.974;2022-10-26T02:25:07;100468.00;;;10.43;84.90
23635;BME280;11994;51.038;16.974;2022-10-26T02:27:41;100467.48;;;10.46;85.10
23635;BME280;11994;51.038;16.974;2022-10-26T02:30:10;100464.84;;;10.48;85.30
23635;BME280;11994;51.038;16.974;2022-10-26T02:32:40;100470.42;;;10.52;85.40
23635;BME280;11994;51.038;16.974;2022-10-26T02:35:08;100467.35;;;10.54;85.56
23635;BME280;11994;51.038;16.974;2022-10-26T02:37:37;100469.90;;;10.57;85.37
23635;BME280;11994;51.038;16.974;2022-10-26T02:40:08;100477.88;;;10.51;84.86
23635;BME280;11994;51.038;16.974;2022-10-26T02:42:39;100474.55;;;10.43;84.63
23635;BME280;11994;51.038;16.974;2022-10-26T02:45:09;100475.98;;;10.37;84.67
23635;BME280;11994;51.038;16.974;2022-10-26T02:47:37;100476.09;;;10.31;84.83
23635;BME280;11994;51.038;16.974;2022-10-26T02:50:03;100479.56;;;10.31;85.00
23635;BME280;11994;51.038;16.974;2022-10-26T02:55:17;100481.75;;;10.32;84.84
23635;BME280;11994;51.038;16.974;2022-10-26T02:57:49;100483.70;;;10.21;84.57
23635;BME280;11994;51.038;16.974;2022-10-26T03:00:17;100482.48;;;10.15;84.78
23635;BME280;11994;51.038;16.974;2022-10-26T03:02:45;100488.22;;;10.13;84.90
23635;BME280;11994;51.038;16.974;2022-10-26T03:05:25;100486.41;;;10.16;84.95
23635;BME280;11994;51.038;16.974;2022-10-26T03:07:52;100488.55;;;10.18;85.07
23635;BME280;11994;51.038;16.974;2022-10-26T03:10:20;100488.41;;;10.26;85.38
23635;BME280;11994;51.038;16.974;2022-10-26T03:12:47;100487.95;;;10.26;85.08
23635;BME280;11994;51.038;16.974;2022-10-26T03:15:13;100489.35;;;10.22;84.87
23635;BME280;11994;51.038;16.974;2022-10-26T03:17:40;100496.08;;;10.13;84.70
23635;BME280;11994;51.038;16.974;2022-10-26T03:20:07;100496.62;;;10.03;84.74
23635;BME280;11994;51.038;16.974;2022-10-26T03:22:34;100499.73;;;10.00;84.58
23635;BME280;11994;51.038;16.974;2022-10-26T03:25:01;100501.15;;;9.94;84.82
23635;BME280;11994;51.038;16.974;2022-10-26T03:27:27;100502.46;;;9.94;85.20
23635;BME280;11994;51.038;16.974;2022-10-26T03:29:53;100496.20;;;10.02;85.36
23635;BME280;11994;51.038;16.974;2022-10-26T03:32:19;100494.00;;;10.03;85.31
23635;BME280;11994;51.038;16.974;2022-10-26T03:34:45;100492.73;;;10.02;85.20
23635;BME280;11994;51.038;16.974;2022-10-26T03:37:11;100496.67;;;10.02;85.20
23635;BME280;11994;51.038;16.974;2022-10-26T03:39:38;100501.02;;;10.03;85.05
23635;BME280;11994;51.038;16.974;2022-10-26T03:42:04;100499.70;;;10.03;85.13
23635;BME280;11994;51.038;16.974;2022-10-26T03:44:30;100500.55;;;10.06;85.30
23635;BME280;11994;51.038;16.974;2022-10-26T03:46:56;100507.91;;;10.10;85.10
23635;BME280;11994;51.038;16.974;2022-10-26T03:49:22;100504.07;;;10.02;84.88
23635;BME280;11994;51.038;16.974;2022-10-26T03:51:48;100504.69;;;9.91;84.90
23635;BME280;11994;51.038;16.974;2022-10-26T03:54:14;100507.81;;;9.86;85.10
23635;BME280;11994;51.038;16.974;2022-10-26T03:56:40;100507.42;;;9.84;85.19
23635;BME280;11994;51.038;16.974;2022-10-26T03:59:07;100503.97;;;9.82;85.30
23635;BME280;11994;51.038;16.974;2022-10-26T04:01:33;100506.16;;;9.82;85.39
23635;BME280;11994;51.038;16.974;2022-10-26T04:03:59;100503.57;;;9.79;85.32
23635;BME280;11994;51.038;16.974;2022-10-26T04:06:25;100504.05;;;9.77;85.41
23635;BME280;11994;51.038;16.974;2022-10-26T04:08:51;100498.74;;;9.80;85.60
23635;BME280;11994;51.038;16.974;2022-10-26T04:11:19;100510.62;;;9.76;85.23
23635;BME280;11994;51.038;16.974;2022-10-26T04:13:46;100512.45;;;9.69;85.12
23635;BME280;11994;51.038;16.974;2022-10-26T04:16:13;100514.31;;;9.63;85.20
23635;BME280;11994;51.038;16.974;2022-10-26T04:18:39;100514.34;;;9.60;85.29
23635;BME280;11994;51.038;16.974;2022-10-26T04:21:05;100510.06;;;9.56;85.45
23635;BME280;11994;51.038;16.974;2022-10-26T04:23:31;100510.91;;;9.56;85.66
23635;BME280;11994;51.038;16.974;2022-10-26T04:25:57;100506.56;;;9.55;85.67
23635;BME280;11994;51.038;16.974;2022-10-26T04:28:23;100511.83;;;9.52;85.51
23635;BME280;11994;51.038;16.974;2022-10-26T04:30:49;100510.58;;;9.49;85.70
23635;BME280;11994;51.038;16.974;2022-10-26T04:33:15;100510.56;;;9.51;85.80
23635;BME280;11994;51.038;16.974;2022-10-26T04:35:41;100512.68;;;9.56;86.00
23635;BME280;11994;51.038;16.974;2022-10-26T04:38:08;100507.44;;;9.56;85.77
23635;BME280;11994;51.038;16.974;2022-10-26T04:40:34;100514.84;;;9.55;85.57
23635;BME280;11994;51.038;16.974;2022-10-26T04:43:01;100513.21;;;9.48;85.47
23635;BME280;11994;51.038;16.974;2022-10-26T04:45:27;100518.95;;;9.43;85.46
23635;BME280;11994;51.038;16.974;2022-10-26T04:48:06;100520.41;;;9.34;85.38
23635;BME280;11994;51.038;16.974;2022-10-26T04:50:35;100520.58;;;9.20;85.46
23635;BME280;11994;51.038;16.974;2022-10-26T04:53:01;100521.98;;;9.13;85.75
23635;BME280;11994;51.038;16.974;2022-10-26T04:55:28;100518.48;;;9.12;86.19
23635;BME280;11994;51.038;16.974;2022-10-26T04:57:54;100517.08;;;9.20;86.71
23635;BME280;11994;51.038;16.974;2022-10-26T05:00:20;100520.04;;;9.27;86.76
23635;BME280;11994;51.038;16.974;2022-10-26T05:02:46;100519.09;;;9.34;86.55
23635;BME280;11994;51.038;16.974;2022-10-26T05:05:12;100521.73;;;9.31;86.39
23635;BME280;11994;51.038;16.974;2022-10-26T05:07:39;100517.39;;;9.30;86.28
23635;BME280;11994;51.038;16.974;2022-10-26T05:10:05;100516.52;;;9.29;86.24
23635;BME280;11994;51.038;16.974;2022-10-26T05:12:33;100522.64;;;9.28;86.21
23635;BME280;11994;51.038;16.974;2022-10-26T05:14:59;100523.94;;;9.30;86.39
23635;BME280;11994;51.038;16.974;2022-10-26T05:17:26;100525.17;;;9.34;86.39
23635;BME280;11994;51.038;16.974;2022-10-26T05:19:53;100527.77;;;9.39;86.64
23635;BME280;11994;51.038;16.974;2022-10-26T05:22:23;100526.80;;;9.44;86.61
23635;BME280;11994;51.038;16.974;2022-10-26T05:24:50;100525.89;;;9.47;86.36
23635;BME280;11994;51.038;16.974;2022-10-26T05:27:16;100531.55;;;9.48;86.28
23635;BME280;11994;51.038;16.974;2022-10-26T05:29:43;100529.31;;;9.52;86.38
23635;BME280;11994;51.038;16.974;2022-10-26T05:32:09;100532.77;;;9.54;86.22
23635;BME280;11994;51.038;16.974;2022-10-26T05:34:35;100526.70;;;9.52;86.04
23635;BME280;11994;51.038;16.974;2022-10-26T05:37:01;100534.14;;;9.51;86.03
23635;BME280;11994;51.038;16.974;2022-10-26T05:39:27;100536.80;;;9.46;85.94
23635;BME280;11994;51.038;16.974;2022-10-26T05:41:53;100537.25;;;9.46;86.11
23635;BME280;11994;51.038;16.974;2022-10-26T05:44:19;100536.84;;;9.45;85.92
23635;BME280;11994;51.038;16.974;2022-10-26T05:46:46;100540.40;;;9.38;85.66
23635;BME280;11994;51.038;16.974;2022-10-26T05:49:12;100546.13;;;9.34;85.75
23635;BME280;11994;51.038;16.974;2022-10-26T05:51:38;100543.97;;;9.34;85.90
23635;BME280;11994;51.038;16.974;2022-10-26T05:54:05;100539.17;;;9.32;85.94
23635;BME280;11994;51.038;16.974;2022-10-26T05:56:36;100542.27;;;9.30;86.01
23635;BME280;11994;51.038;16.974;2022-10-26T05:59:13;100550.19;;;9.25;85.64
23635;BME280;11994;51.038;16.974;2022-10-26T06:04:42;100551.25;;;9.11;85.92
23635;BME280;11994;51.038;16.974;2022-10-26T06:07:15;100553.78;;;9.17;86.36
23635;BME280;11994;51.038;16.974;2022-10-26T06:09:43;100559.35;;;9.25;86.41
23635;BME280;11994;51.038;16.974;2022-10-26T06:12:11;100560.57;;;9.33;86.52
23635;BME280;11994;51.038;16.974;2022-10-26T06:14:38;100560.52;;;9.36;86.39
23635;BME280;11994;51.038;16.974;2022-10-26T06:17:22;100561.84;;;9.34;86.12
23635;BME280;11994;51.038;16.974;2022-10-26T06:20:08;100566.25;;;9.31;86.26
23635;BME280;11994;51.038;16.974;2022-10-26T06:25:33;100562.41;;;9.23;86.26
23635;BME280;11994;51.038;16.974;2022-10-26T06:28:20;100572.95;;;9.19;86.33
23635;BME280;11994;51.038;16.974;2022-10-26T06:30:48;100566.81;;;9.20;86.98
23635;BME280;11994;51.038;16.974;2022-10-26T06:33:14;100567.62;;;9.26;87.27
23635;BME280;11994;51.038;16.974;2022-10-26T06:38:32;100568.38;;;9.36;87.33
23635;BME280;11994;51.038;16.974;2022-10-26T06:41:00;100577.51;;;9.39;87.52
23635;BME280;11994;51.038;16.974;2022-10-26T06:43:30;100584.00;;;9.42;87.37
23635;BME280;11994;51.038;16.974;2022-10-26T06:51:56;100576.05;;;9.51;88.27
23635;BME280;11994;51.038;16.974;2022-10-26T06:54:45;100583.50;;;9.47;88.20
23635;BME280;11994;51.038;16.974;2022-10-26T06:57:15;100586.03;;;9.54;88.65
23635;BME280;11994;51.038;16.974;2022-10-26T06:59:51;100586.27;;;9.69;88.78
23635;BME280;11994;51.038;16.974;2022-10-26T07:02:19;100591.36;;;9.78;88.98
23635;BME280;11994;51.038;16.974;2022-10-26T07:04:46;100588.14;;;9.89;89.13
23635;BME280;11994;51.038;16.974;2022-10-26T07:07:14;100584.12;;;9.95;89.16
23635;BME280;11994;51.038;16.974;2022-10-26T07:09:43;100580.09;;;10.01;88.98
23635;BME280;11994;51.038;16.974;2022-10-26T07:12:09;100581.80;;;10.08;89.16
23635;BME280;11994;51.038;16.974;2022-10-26T07:14:35;100581.20;;;10.17;89.33
23635;BME280;11994;51.038;16.974;2022-10-26T07:17:02;100576.66;;;10.28;89.65
23635;BME280;11994;51.038;16.974;2022-10-26T07:19:29;100573.44;;;10.38;90.00
23635;BME280;11994;51.038;16.974;2022-10-26T07:21:56;100576.24;;;10.52;90.23
23635;BME280;11994;51.038;16.974;2022-10-26T07:24:26;100580.36;;;10.67;90.38
23635;BME280;11994;51.038;16.974;2022-10-26T07:26:54;100581.81;;;10.83;90.61
23635;BME280;11994;51.038;16.974;2022-10-26T07:29:24;100581.95;;;10.99;90.64
23635;BME280;11994;51.038;16.974;2022-10-26T07:31:51;100584.34;;;11.11;90.74
23635;BME280;11994;51.038;16.974;2022-10-26T07:34:17;100582.30;;;11.25;90.65
23635;BME280;11994;51.038;16.974;2022-10-26T07:36:44;100581.20;;;11.36;90.57
23635;BME280;11994;51.038;16.974;2022-10-26T07:39:10;100584.41;;;11.48;90.54
23635;BME280;11994;51.038;16.974;2022-10-26T07:41:36;100592.92;;;11.63;90.49
23635;BME280;11994;51.038;16.974;2022-10-26T07:44:02;100586.11;;;11.73;90.35
23635;BME280;11994;51.038;16.974;2022-10-26T07:46:28;100590.70;;;11.83;90.35
23635;BME280;11994;51.038;16.974;2022-10-26T07:48:54;100588.70;;;11.93;90.56
23635;BME280;11994;51.038;16.974;2022-10-26T07:51:20;100583.16;;;12.05;90.65
23635;BME280;11994;51.038;16.974;2022-10-26T07:53:47;100587.41;;;12.13;90.24
23635;BME280;11994;51.038;16.974;2022-10-26T07:56:13;100585.41;;;12.22;90.16
23635;BME280;11994;51.038;16.974;2022-10-26T07:58:39;100590.79;;;12.35;90.20
23635;BME280;11994;51.038;16.974;2022-10-26T08:01:08;100587.85;;;12.47;90.13
23635;BME280;11994;51.038;16.974;2022-10-26T08:03:36;100586.29;;;12.57;90.00
23635;BME280;11994;51.038;16.974;2022-10-26T08:06:02;100587.35;;;12.66;89.80
23635;BME280;11994;51.038;16.974;2022-10-26T08:08:30;100597.25;;;12.74;89.74
23635;BME280;11994;51.038;16.974;2022-10-26T08:10:58;100590.45;;;12.82;89.70
23635;BME280;11994;51.038;16.974;2022-10-26T08:13:24;100590.19;;;12.92;89.47
23635;BME280;11994;51.038;16.974;2022-10-26T08:16:02;100593.84;;;13.04;89.58
23635;BME280;11994;51.038;16.974;2022-10-26T08:18:29;100591.03;;;13.10;89.39
23635;BME280;11994;51.038;16.974;2022-10-26T08:21:02;100589.11;;;13.17;89.30
23635;BME280;11994;51.038;16.974;2022-10-26T08:23:32;100591.56;;;13.23;88.94
23635;BME280;11994;51.038;16.974;2022-10-26T08:25:59;100594.88;;;13.29;88.96
23635;BME280;11994;51.038;16.974;2022-10-26T08:28:27;100594.44;;;13.30;88.82
23635;BME280;11994;51.038;16.974;2022-10-26T08:30:53;100590.67;;;13.38;88.84
23635;BME280;11994;51.038;16.974;2022-10-26T08:33:21;100584.42;;;13.42;88.54
23635;BME280;11994;51.038;16.974;2022-10-26T08:35:48;100583.22;;;13.52;88.77
23635;BME280;11994;51.038;16.974;2022-10-26T08:38:22;100585.02;;;13.66;88.74
23635;BME280;11994;51.038;16.974;2022-10-26T08:40:49;100586.48;;;13.76;88.60
23635;BME280;11994;51.038;16.974;2022-10-26T08:43:32;100589.33;;;13.83;88.28
23635;BME280;11994;51.038;16.974;2022-10-26T08:48:58;100591.49;;;13.84;87.82
23635;BME280;11994;51.038;16.974;2022-10-26T08:51:27;100589.46;;;13.93;88.16
23635;BME280;11994;51.038;16.974;2022-10-26T08:56:43;100587.37;;;14.19;88.10
23635;BME280;11994;51.038;16.974;2022-10-26T09:01:58;100597.44;;;14.05;87.27
23635;BME280;11994;51.038;16.974;2022-10-26T09:04:27;100594.65;;;14.09;87.42
23635;BME280;11994;51.038;16.974;2022-10-26T09:12:37;100590.72;;;14.50;87.59
23635;BME280;11994;51.038;16.974;2022-10-26T09:21:12;100593.88;;;14.61;86.50
23635;BME280;11994;51.038;16.974;2022-10-26T09:24:14;100595.70;;;14.72;86.08
23635;BME280;11994;51.038;16.974;2022-10-26T09:26:52;100589.95;;;14.85;85.74
23635;BME280;11994;51.038;16.974;2022-10-26T09:29:23;100594.05;;;14.94;85.66
23635;BME280;11994;51.038;16.974;2022-10-26T09:31:59;100595.11;;;15.01;85.29
23635;BME280;11994;51.038;16.974;2022-10-26T09:34:30;100601.33;;;15.12;84.78
23635;BME280;11994;51.038;16.974;2022-10-26T09:37:10;100600.14;;;15.20;84.81
23635;BME280;11994;51.038;16.974;2022-10-26T09:39:39;100601.20;;;15.28;84.61
23635;BME280;11994;51.038;16.974;2022-10-26T09:42:17;100603.52;;;15.37;83.98
23635;BME280;11994;51.038;16.974;2022-10-26T09:44:54;100604.47;;;15.47;84.18
23635;BME280;11994;51.038;16.974;2022-10-26T09:47:38;100602.84;;;15.55;84.07
23635;BME280;11994;51.038;16.974;2022-10-26T09:50:23;100605.91;;;15.56;83.91
23635;BME280;11994;51.038;16.974;2022-10-26T09:52:53;100605.73;;;15.60;83.93
23635;BME280;11994;51.038;16.974;2022-10-26T09:55:20;100611.49;;;15.71;84.19
23635;BME280;11994;51.038;16.974;2022-10-26T09:57:55;100613.09;;;15.87;83.86
23635;BME280;11994;51.038;16.974;2022-10-26T10:00:24;100613.94;;;15.99;83.60
23635;BME280;11994;51.038;16.974;2022-10-26T10:02:56;100614.97;;;16.06;82.51
23635;BME280;11994;51.038;16.974;2022-10-26T10:05:32;100610.41;;;16.10;82.92
23635;BME280;11994;51.038;16.974;2022-10-26T10:08:15;100618.11;;;16.16;82.91
23635;BME280;11994;51.038;16.974;2022-10-26T10:11:13;100611.54;;;16.26;82.99
23635;BME280;11994;51.038;16.974;2022-10-26T10:13:41;100612.34;;;16.39;83.07
23635;BME280;11994;51.038;16.974;2022-10-26T10:16:19;100615.09;;;16.48;82.22
23635;BME280;11994;51.038;16.974;2022-10-26T10:18:55;100611.36;;;16.52;81.95
23635;BME280;11994;51.038;16.974;2022-10-26T10:21:38;100612.38;;;16.49;80.78
23635;BME280;11994;51.038;16.974;2022-10-26T10:24:32;100612.63;;;16.53;81.11
23635;BME280;11994;51.038;16.974;2022-10-26T10:27:16;100610.27;;;16.57;81.13
23635;BME280;11994;51.038;16.974;2022-10-26T10:29:50;100612.47;;;16.58;81.35
23635;BME280;11994;51.038;16.974;2022-10-26T10:32:25;100613.67;;;16.71;81.29
23635;BME280;11994;51.038;16.974;2022-10-26T10:34:57;100608.45;;;16.79;81.19
23635;BME280;11994;51.038;16.974;2022-10-26T10:37:35;100605.82;;;16.89;80.93
23635;BME280;11994;51.038;16.974;2022-10-26T10:40:21;100611.10;;;16.99;80.28
23635;BME280;11994;51.038;16.974;2022-10-26T10:42:50;100609.45;;;17.07;80.41
23635;BME280;11994;51.038;16.974;2022-10-26T10:45:22;100612.32;;;17.12;79.64
23635;BME280;11994;51.038;16.974;2022-10-26T10:50:53;100610.30;;;17.17;78.50
23635;BME280;11994;51.038;16.974;2022-10-26T10:53:52;100611.57;;;17.19;77.31
23635;BME280;11994;51.038;16.974;2022-10-26T11:07:41;100612.27;;;17.44;77.09
23635;BME280;11994;51.038;16.974;2022-10-26T11:10:07;100603.93;;;17.51;77.25
23635;BME280;11994;51.038;16.974;2022-10-26T11:12:41;100605.41;;;17.58;76.82
23635;BME280;11994;51.038;16.974;2022-10-26T11:15:13;100605.52;;;17.65;76.67
23635;BME280;11994;51.038;16.974;2022-10-26T11:20:33;100602.03;;;17.73;76.16
23635;BME280;11994;51.038;16.974;2022-10-26T11:23:36;100599.25;;;17.76;76.22
23635;BME280;11994;51.038;16.974;2022-10-26T11:29:09;100614.73;;;17.85;75.57
23635;BME280;11994;51.038;16.974;2022-10-26T11:31:41;100603.72;;;17.84;75.46
23635;BME280;11994;51.038;16.974;2022-10-26T11:34:26;100601.88;;;17.86;74.44
23635;BME280;11994;51.038;16.974;2022-10-26T11:36:54;100608.23;;;17.92;74.63
23635;BME280;11994;51.038;16.974;2022-10-26T11:45:30;100610.72;;;17.95;74.77
23635;BME280;11994;51.038;16.974;2022-10-26T11:50:49;100605.16;;;18.10;74.50
23635;BME280;11994;51.038;16.974;2022-10-26T11:53:20;100602.05;;;18.10;74.08
23635;BME280;11994;51.038;16.974;2022-10-26T11:55:53;100603.12;;;18.06;74.10
23635;BME280;11994;51.038;16.974;2022-10-26T11:58:25;100605.22;;;18.08;73.99
23635;BME280;11994;51.038;16.974;2022-10-26T12:01:00;100602.17;;;18.07;73.88
23635;BME280;11994;51.038;16.974;2022-10-26T12:03:32;100608.11;;;18.04;73.84
23635;BME280;11994;51.038;16.974;2022-10-26T12:06:01;100600.36;;;17.99;73.62
23635;BME280;11994;51.038;16.974;2022-10-26T12:08:35;100601.91;;;17.95;73.59
23635;BME280;11994;51.038;16.974;2022-10-26T12:19:58;100597.63;;;17.82;73.07
23635;BME280;11994;51.038;16.974;2022-10-26T12:22:38;100597.63;;;17.82;73.24
23635;BME280;11994;51.038;16.974;2022-10-26T12:25:16;100594.82;;;17.85;73.20
23635;BME280;11994;51.038;16.974;2022-10-26T12:32:50;100597.09;;;18.03;73.07
23635;BME280;11994;51.038;16.974;2022-10-26T12:38:54;100600.08;;;18.05;72.82
23635;BME280;11994;51.038;16.974;2022-10-26T12:43:37;100602.50;;;18.10;71.89
23635;BME280;11994;51.038;16.974;2022-10-26T12:54:03;100596.41;;;18.08;71.77
23635;BME280;11994;51.038;16.974;2022-10-26T13:07:47;100585.94;;;18.13;71.30
23635;BME280;11994;51.038;16.974;2022-10-26T13:10:17;100578.59;;;18.10;71.03
23635;BME280;11994;51.038;16.974;2022-10-26T13:15:34;100582.36;;;18.06;71.07
23635;BME280;11994;51.038;16.974;2022-10-26T13:18:18;100588.67;;;18.03;70.94
23635;BME280;11994;51.038;16.974;2022-10-26T13:21:04;100580.83;;;18.00;70.71
23635;BME280;11994;51.038;16.974;2022-10-26T13:26:24;100574.78;;;18.07;69.65
23635;BME280;11994;51.038;16.974;2022-10-26T13:28:53;100571.02;;;18.11;69.93
23635;BME280;11994;51.038;16.974;2022-10-26T13:34:03;100578.27;;;18.07;69.54
23635;BME280;11994;51.038;16.974;2022-10-26T13:37:16;100579.80;;;18.13;69.50
23635;BME280;11994;51.038;16.974;2022-10-26T13:39:46;100579.56;;;18.17;69.06
23635;BME280;11994;51.038;16.974;2022-10-26T13:42:30;100579.43;;;18.20;68.93
23635;BME280;11994;51.038;16.974;2022-10-26T13:45:04;100584.58;;;18.23;68.84
23635;BME280;11994;51.038;16.974;2022-10-26T13:50:10;100584.00;;;18.17;68.85
23635;BME280;11994;51.038;16.974;2022-10-26T13:52:44;100587.69;;;18.14;68.81
23635;BME280;11994;51.038;16.974;2022-10-26T13:55:42;100589.02;;;18.14;68.83
23635;BME280;11994;51.038;16.974;2022-10-26T14:01:02;100587.92;;;18.18;68.84
23635;BME280;11994;51.038;16.974;2022-10-26T14:03:31;100580.50;;;18.16;68.68
23635;BME280;11994;51.038;16.974;2022-10-26T14:05:57;100582.28;;;18.16;68.71
23635;BME280;11994;51.038;16.974;2022-10-26T14:08:23;100581.96;;;18.13;68.60
23635;BME280;11994;51.038;16.974;2022-10-26T14:10:57;100577.07;;;18.14;68.56
23635;BME280;11994;51.038;16.974;2022-10-26T14:13:26;100575.32;;;18.13;68.71
23635;BME280;11994;51.038;16.974;2022-10-26T14:15:57;100576.65;;;18.13;68.53
23635;BME280;11994;51.038;16.974;2022-10-26T14:18:28;100575.25;;;18.15;68.61
23635;BME280;11994;51.038;16.974;2022-10-26T14:21:01;100574.94;;;18.12;68.58
23635;BME280;11994;51.038;16.974;2022-10-26T14:23:46;100578.14;;;18.10;68.65
23635;BME280;11994;51.038;16.974;2022-10-26T14:26:37;100582.74;;;18.07;68.79
23635;BME280;11994;51.038;16.974;2022-10-26T14:29:00;100583.81;;;18.03;68.79
23635;BME280;11994;51.038;16.974;2022-10-26T14:31:28;100578.73;;;17.98;68.89
23635;BME280;11994;51.038;16.974;2022-10-26T14:33:57;100582.78;;;17.97;68.67
23635;BME280;11994;51.038;16.974;2022-10-26T14:36:30;100587.31;;;17.95;68.60
23635;BME280;11994;51.038;16.974;2022-10-26T14:41:54;100591.52;;;17.99;68.64
23635;BME280;11994;51.038;16.974;2022-10-26T14:44:22;100588.25;;;18.02;68.93
23635;BME280;11994;51.038;16.974;2022-10-26T14:46:49;100591.23;;;18.05;69.00
23635;BME280;11994;51.038;16.974;2022-10-26T14:49:25;100588.25;;;18.02;68.95
23635;BME280;11994;51.038;16.974;2022-10-26T14:52:00;100584.55;;;17.96;68.95
23635;BME280;11994;51.038;16.974;2022-10-26T14:54:31;100588.64;;;17.95;69.12
23635;BME280;11994;51.038;16.974;2022-10-26T14:56:58;100586.17;;;17.90;69.07
23635;BME280;11994;51.038;16.974;2022-10-26T14:59:27;100581.41;;;17.88;69.10
23635;BME280;11994;51.038;16.974;2022-10-26T15:02:10;100586.41;;;17.86;69.15
23635;BME280;11994;51.038;16.974;2022-10-26T15:04:55;100587.02;;;17.82;69.11
23635;BME280;11994;51.038;16.974;2022-10-26T15:07:14;100587.69;;;17.77;69.15
23635;BME280;11994;51.038;16.974;2022-10-26T15:09:45;100588.30;;;17.74;69.24
23635;BME280;11994;51.038;16.974;2022-10-26T15:12:35;100588.04;;;17.70;69.09
23635;BME280;11994;51.038;16.974;2022-10-26T15:17:55;100590.88;;;17.57;69.27
23635;BME280;11994;51.038;16.974;2022-10-26T15:20:25;100588.02;;;17.51;69.31
23635;BME280;11994;51.038;16.974;2022-10-26T15:22:54;100592.70;;;17.46;69.44
23635;BME280;11994;51.038;16.974;2022-10-26T15:25:26;100587.13;;;17.42;69.37